x

Gulf Of Maine - 78 Nm East Of Portsmouth, Nh (44005) Wave Buoy

10:50 - Sat 10th Dec 2016 All times are EST. -5 hours from GMT.

  • Sig Wave height 4.9ft
  • Swell Direction
  • Peak Period 6s
  • Average Period 5s
  • Wind
    20mph, 27mph gusts
  • Sea Temp 49°f
  • Ar Temp 25°f
  • Sea Pressure 1023.1mb
  • Gulf Of Maine - 78 Nm East Of Portsmouth, Nh
  • Gulf Of Maine - 78 Nm East Of Portsmouth, Nh

More Historic Weather Station data

Upgrade to MSW Pro to gain access to the past 30 days of data for over 8000 Wavebouys and Weather Stations around the globe.

Join Pro

Comparision Forecast

View Surf forecast
   
Sáb 12/10 10:50 5ft 6s 5s 20 27 mph 1023.1mb 49f 25f
9:50 5ft 6s 5s 22 27 mph 1023.3mb 49f 25f
8:50 5ft 6s 5s 22 29 mph 1022.9mb 49f 25f
7:50 6ft 7s 5s 20 29 mph 1022.5mb 49f 25f
6:50 7ft 6s 5s 25 31 mph 1021.7mb 49f 25f
5:50 6ft 6s 5s 27 34 mph 1020.8mb 49f 25f
4:50 6ft 6s 5s 25 29 mph 1020.8mb 49f 24f
3:50 5.5ft 6s 5s 25 31 mph 1019.6mb 49f 27f
2:50 5.5ft 6s 5s 27 31 mph 1018.9mb 49f 29f
1:50 5.5ft 6s 5s 25 31 mph 1018.7mb 49f 30f
12:50 6.5ft 6s 5s 25 29 mph 1018.4mb 49f 30f
Sex 12/09 11:50 7ft 6s 5s 25 31 mph 1018.1mb 49f 30f
10:50 7.5ft 6s 5s 27 36 mph 1017.8mb 49f 31f
9:50 8ft 6s 5s 27 34 mph 1017.4mb 49f 31f
8:50 8ft 6s 5s 29 38 mph 1016.5mb 49f 31f
7:50 7.5ft 7s 5s 29 36 mph 1016mb 49f 32f
6:50 7ft 7s 5s 27 38 mph 1015.1mb 50f 33f
5:50 7.5ft 7s 5s 27 34 mph 1014.3mb 50f 33f
4:50 7ft 6s 5s 27 34 mph 1013.3mb 50f 34f
3:50 7ft 6s 5s 25 34 mph 1012.9mb 50f 33f
2:50 7ft 6s 5s 27 36 mph 1011.7mb 50f 34f
1:50 7ft 6s 5s 25 29 mph 1011.3mb 50f 34f
12:50 7ft 6s 5s 27 36 mph 1010.4mb 50f 35f
11:50 6ft 6s 5s 27 34 mph 1010.4mb 50f 34f
10:50 6ft 6s 5s 25 29 mph 1010.5mb 50f 34f
9:50 7.5ft 6s 5s 27 34 mph 1010.1mb 50f 35f
8:50 7ft 7s 5s 25 31 mph 1009.7mb 50f 35f
7:50 7.5ft 6s 5s 29 36 mph 1008.5mb 50f 36f
6:50 7ft 7s 5s 29 36 mph 1007.4mb 50f 37f
5:50 7.5ft 7s 5s 29 36 mph 1006.9mb 50f 38f
4:50 8ft 7s 6s 29 38 mph 1006.4mb 50f 38f
3:50 8ft 7s 6s 29 38 mph 1005.9mb 50f 39f
2:50 7ft 7s 5s 29 34 mph 1006.3mb 50f 39f
1:50 6ft 6s 5s 27 34 mph 1006.4mb 50f 39f
12:50 6ft 6s 5s 27 31 mph 1006mb 50f 40f
Qui 12/08 11:50 6.5ft 6s 5s 25 29 mph 1006.1mb 50f 40f
10:50 6.5ft 7s 5s 27 31 mph 1006.2mb 50f 41f
9:50 6ft 6s 5s 25 29 mph 1006.1mb 50f 41f
8:50 6ft 6s 5s 29 36 mph 1005.9mb 50f 42f
7:50 5ft 5s 5s 27 34 mph 1006mb 50f 43f
6:50 5ft 5s 5s 25 31 mph 1005.9mb 50f 44f
5:50 4.5ft 5s 5s 22 29 mph 1005.9mb 50f 44f
4:50 4.5ft 5s 5s 20 25 mph 1006.1mb 50f 44f
3:50 4.5ft 5s 5s 16 22 mph 1006.4mb 50f 44f
2:50 4.5ft 5s 5s 18 22 mph 1006.9mb 50f 43f
1:50 4.5ft 5s 4s 25 31 mph 1006.9mb 50f 43f
12:50 4.5ft 5s 5s 20 25 mph 1007.8mb 50f 44f
11:50 4ft 11s 5s 18 22 mph 1009mb 50f 44f
10:50 3.5ft 11s 6s 18 22 mph 1010.5mb 50f 44f
9:50 3.5ft 10s 6s 16 20 mph 1011.7mb 50f 43f
8:50 3ft 10s 6s 11 18 mph 1011.8mb 50f 43f
7:50 3ft 11s 6s 9 13 mph 1011.9mb 50f 42f
6:50 3ft 11s 5s 11 13 mph 1012.2mb 50f 42f
5:50 2.5ft 11s 5s 11 13 mph 1012.2mb 50f 43f
4:50 2.5ft 4s 4s 11 16 mph 1012.3mb 50f 43f
3:50 2.5ft 4s 4s 16 20 mph 1012.7mb 50f 43f
2:50 2.5ft 4s 4s 16 20 mph 1012.9mb 50f 43f
12:50 2.5ft 4s 4s 9 13 mph 1013.5mb 50f 44f
Qua 12/07 11:50 2.5ft 8s 5s 13 18 mph 1013.9mb 50f 44f
10:50 2.5ft 8s 4s 16 20 mph 1014.8mb 50f 44f
9:50 2.5ft 10s 5s 11 13 mph 1014.3mb 50f 44f
8:50 2.5ft 10s 6s 13 20 mph 1014.8mb 50f 45f
7:50 2.5ft 9s 7s 11 13 mph 1014.9mb 50f 43f
6:50 2.5ft 9s 7s 9 11 mph 1015mb 50f 43f
5:50 2.5ft 9s 6s 7 9 mph 1015.1mb 50f 43f
4:50 2.5ft 11s 5s 4 7 mph 1014.5mb 50f 43f
3:50 2ft 9s 5s 4 7 mph 1014.1mb 50f 42f
2:50 2.5ft 11s 5s 4 7 mph 1013.9mb 50f 42f
1:50 2ft 11s 5s 2 7 mph 1014.1mb 50f 41f
11:50 2.5ft 10s 5s 2 4 mph 1015mb 50f 41f
10:50 2.5ft 9s 5s 7
mph
1015.1mb 50f 41f
9:50 2.5ft 9s 5s 9 13 mph 1015.6mb 50f 40f
8:50 2.5ft 11s 5s 9 16 mph 1015.5mb 50f 40f
7:50 2.5ft 10s 5s 13 16 mph 1014.4mb 50f 40f
6:50 2.5ft 9s 5s 13 16 mph 1014.4mb 50f 40f
5:50 3ft 10s 5s 13 16 mph 1014.2mb 50f 39f
4:50 2.5ft 10s 5s 13 20 mph 1014mb 50f 39f
3:50 2.5ft 10s 5s 13 18 mph 1014.3mb 50f 39f
2:50 2.5ft 11s 6s 9 13 mph 1015.7mb 50f 39f
1:50 2.5ft 10s 6s 9 11 mph 1015.7mb 50f 38f
12:50 2.5ft 11s 5s 7 11 mph 1015.8mb 50f 38f
Ter 12/06 11:50 2.5ft 11s 5s 7 9 mph 1016.3mb 50f 37f
10:50 2.5ft 12s 5s 7 9 mph 1017.1mb 50f 37f
9:50 2.5ft 11s 5s 11 16 mph 1017.5mb 50f 36f
8:50 2.5ft 11s 5s 13 20 mph 1017.1mb 50f 37f
7:50 2.5ft 11s 5s 13 16 mph 1017.4mb 50f 36f
6:50 2.5ft 11s 5s 13 18 mph 1017.3mb 50f 37f
5:50 3ft 11s 5s 11 16 mph 1017.6mb 50f 37f